Time;durP1;ratioP1;P1;durP2;ratioP2;P2;SDS_P1;SDS_P2;PMS_P1;PMS_P2;Temp;Humidity;BMP_temperature;BMP_pressure;BME280_temperature;BME280_humidity;BME280_pressure;Samples;Min_cycle;Max_cycle;Signal;HPM_P1;HPM_P2
2022/10/17 00:01:47;;;;;;;2.42;1.25;;;14.70;90.40;;;;;;5093028;28;20098;-62
2022/10/17 00:04:15;;;;;;;4.15;1.20;;;14.60;90.40;;;;;;5093382;28;20051;-62
2022/10/17 00:06:43;;;;;;;3.67;1.23;;;14.60;90.40;;;;;;5092388;28;20048;-64
2022/10/17 00:09:10;;;;;;;3.00;1.27;;;14.70;90.30;;;;;;5093758;28;20051;-63
2022/10/17 00:11:43;;;;;;;4.72;1.60;;;14.60;90.40;;;;;;5090677;28;20127;-63
2022/10/17 00:14:10;;;;;;;3.17;1.20;;;14.60;90.50;;;;;;5090794;28;20048;-62
2022/10/17 00:16:37;;;;;;;2.92;1.58;;;14.60;90.50;;;;;;5087449;28;20074;-62
2022/10/17 00:19:07;;;;;;;2.77;1.40;;;14.60;90.40;;;;;;5093319;28;20052;-63
2022/10/17 00:21:41;;;;;;;3.20;1.30;;;14.50;90.30;;;;;;5094363;28;20116;-63
2022/10/17 00:24:10;;;;;;;3.70;1.77;;;14.50;90.40;;;;;;5090833;28;20073;-62
2022/10/17 00:26:39;;;;;;;3.00;1.40;;;14.50;90.30;;;;;;5089913;28;20135;-63
2022/10/17 00:29:08;;;;;;;2.53;1.23;;;14.40;90.20;;;;;;5095269;28;20048;-62
2022/10/17 00:31:35;;;;;;;2.33;1.13;;;14.40;90.20;;;;;;5076405;28;20044;-63
2022/10/17 00:34:05;;;;;;;2.92;1.40;;;14.40;90.10;;;;;;5090706;28;20412;-63
2022/10/17 00:36:33;;;;;;;6.35;1.60;;;14.40;90.10;;;;;;5091561;28;20048;-62
2022/10/17 00:39:07;;;;;;;2.47;1.42;;;14.40;90.10;;;;;;5098932;27;20059;-62
2022/10/17 00:41:34;;;;;;;7.20;1.30;;;14.30;90.20;;;;;;5093060;28;21381;-63
2022/10/17 00:44:46;;;;;;;4.35;1.35;;;14.40;90.10;;;;;;5080566;28;20135;-63
2022/10/17 00:47:17;;;;;;;1.63;1.00;;;14.30;90.00;;;;;;5099838;28;20047;-63
2022/10/17 00:49:44;;;;;;;2.90;1.48;;;14.30;90.00;;;;;;5081527;28;20052;-63
2022/10/17 00:52:14;;;;;;;4.35;1.20;;;14.30;90.10;;;;;;5101409;28;20401;-63
2022/10/17 00:54:44;;;;;;;;;;;14.30;90.10;;;;;;5099376;28;20067;-63
2022/10/17 00:57:11;;;;;;;3.65;1.60;;;14.30;90.10;;;;;;5095686;28;21602;-63
2022/10/17 00:59:41;;;;;;;4.75;1.48;;;14.30;90.00;;;;;;5097956;28;20481;-62
2022/10/17 01:02:10;;;;;;;3.08;1.75;;;14.20;90.10;;;;;;5098445;28;20044;-63
2022/10/17 01:04:38;;;;;;;2.45;1.48;;;14.20;90.20;;;;;;5098145;28;20056;-63
2022/10/17 01:07:10;;;;;;;4.30;1.60;;;14.20;90.20;;;;;;5097167;28;20470;-62
2022/10/17 01:09:38;;;;;;;2.92;1.48;;;14.20;90.10;;;;;;5098893;27;20046;-63
2022/10/17 01:12:17;;;;;;;2.85;1.23;;;14.20;90.20;;;;;;5099030;27;20069;-63
2022/10/17 01:14:53;;;;;;;3.60;1.48;;;14.20;90.20;;;;;;5100485;28;20036;-63
2022/10/17 01:17:25;;;;;;;2.80;1.50;;;14.20;90.10;;;;;;5093302;28;20080;-63
2022/10/17 01:20:23;;;;;;;3.47;1.50;;;14.20;90.10;;;;;;5100154;28;20039;-63
2022/10/17 01:23:00;;;;;;;2.42;1.50;;;14.20;90.20;;;;;;5097837;28;20394;-63
2022/10/17 01:25:42;;;;;;;2.80;1.30;;;14.20;90.10;;;;;;5094024;28;20071;-63
2022/10/17 01:28:25;;;;;;;2.60;1.30;;;14.20;90.00;;;;;;5099014;27;20043;-63
2022/10/17 01:31:12;;;;;;;3.47;1.50;;;14.20;90.00;;;;;;5099129;27;20063;-63
2022/10/17 01:33:51;;;;;;;2.05;1.20;;;14.10;90.00;;;;;;5097652;28;20044;-63
2022/10/17 01:36:32;;;;;;;3.38;1.80;;;14.00;90.00;;;;;;5092678;28;20101;-61
2022/10/17 01:39:07;;;;;;;3.33;2.10;;;14.10;90.00;;;;;;5096715;28;20036;-63
2022/10/17 01:41:41;;;;;;;2.38;1.42;;;14.10;89.80;;;;;;5094743;28;20113;-63
2022/10/17 01:44:13;;;;;;;3.08;1.23;;;14.10;89.80;;;;;;5094790;28;20032;-63
2022/10/17 01:46:44;;;;;;;3.50;1.45;;;14.00;89.90;;;;;;5095650;28;20051;-63
2022/10/17 01:49:14;;;;;;;2.65;1.20;;;14.00;89.80;;;;;;5097596;28;20071;-63
2022/10/17 01:51:52;;;;;;;4.15;1.30;;;14.00;89.80;;;;;;5100274;28;20055;-63
2022/10/17 01:54:23;;;;;;;4.18;1.40;;;14.00;89.70;;;;;;5096874;28;20074;-63
2022/10/17 01:56:56;;;;;;;3.83;1.50;;;14.00;89.80;;;;;;5101135;28;20051;-62
2022/10/17 01:59:29;;;;;;;4.00;1.48;;;13.90;89.80;;;;;;5099948;28;20040;-62
2022/10/17 02:01:59;;;;;;;2.45;1.30;;;13.90;90.00;;;;;;5116353;28;20043;-63
2022/10/17 02:04:26;;;;;;;2.80;1.23;;;13.90;90.00;;;;;;5114403;28;20462;-63
2022/10/17 02:06:53;;;;;;;4.70;1.40;;;13.90;90.00;;;;;;5090340;28;20051;-63
2022/10/17 02:09:26;;;;;;;3.53;1.48;;;13.90;90.00;;;;;;5076766;28;20585;-67
2022/10/17 02:12:08;;;;;;;2.63;1.33;;;13.90;90.10;;;;;;5093653;28;20047;-63
2022/10/17 02:14:45;;;;;;;2.95;1.20;;;13.90;90.10;;;;;;5101865;28;22191;-63
2022/10/17 02:17:28;;;;;;;6.68;1.60;;;13.80;90.10;;;;;;5098998;27;20076;-63
2022/10/17 02:20:08;;;;;;;3.28;1.65;;;13.90;90.10;;;;;;5073589;27;20412;-63
2022/10/17 02:22:43;;;;;;;2.88;1.58;;;13.80;90.10;;;;;;5097323;28;20132;-62
2022/10/17 02:25:17;;;;;;;3.50;1.40;;;13.90;90.00;;;;;;5097307;28;20059;-63
2022/10/17 02:27:52;;;;;;;5.05;1.45;;;13.80;90.00;;;;;;5091016;28;20042;-63
2022/10/17 02:30:38;;;;;;;2.95;1.38;;;13.80;89.90;;;;;;5078952;28;20185;-63
2022/10/17 02:33:11;;;;;;;4.22;1.70;;;13.80;90.00;;;;;;5095893;28;20410;-63
2022/10/17 02:35:43;;;;;;;2.97;1.55;;;13.80;90.00;;;;;;5094459;28;20048;-63
2022/10/17 02:38:14;;;;;;;2.72;1.65;;;13.80;90.00;;;;;;5092005;28;20048;-63
2022/10/17 02:40:44;;;;;;;4.97;1.27;;;13.80;90.10;;;;;;5080038;28;20382;-62
2022/10/17 02:43:11;;;;;;;3.67;1.60;;;13.80;90.10;;;;;;5095944;28;20059;-62
2022/10/17 02:45:41;;;;;;;3.05;1.35;;;13.70;90.10;;;;;;5094828;28;20067;-62
2022/10/17 02:48:16;;;;;;;6.35;1.85;;;13.80;90.20;;;;;;5096097;28;20052;-63
2022/10/17 02:51:00;;;;;;;3.80;1.50;;;13.80;90.10;;;;;;5097262;28;20130;-63
2022/10/17 02:53:33;;;;;;;4.28;1.35;;;13.70;90.10;;;;;;5094686;27;20109;-63
2022/10/17 02:56:06;;;;;;;2.25;1.33;;;13.80;89.90;;;;;;5096403;28;20052;-63
2022/10/17 02:58:36;;;;;;;4.78;1.63;;;13.80;89.80;;;;;;5095737;28;20098;-63
2022/10/17 03:01:05;;;;;;;4.00;1.48;;;13.70;89.80;;;;;;5099511;28;20051;-63
2022/10/17 03:03:33;;;;;;;1.83;1.33;;;13.70;89.90;;;;;;5089174;28;20520;-63
2022/10/17 03:06:01;;;;;;;4.28;1.77;;;13.60;90.00;;;;;;5088770;28;20151;-63
2022/10/17 03:08:28;;;;;;;3.42;1.70;;;13.60;90.00;;;;;;5095771;28;20047;-63
2022/10/17 03:10:56;;;;;;;3.63;1.50;;;13.70;89.80;;;;;;5106884;27;20545;-63
2022/10/17 03:13:26;;;;;;;3.47;1.60;;;13.70;89.90;;;;;;5094595;28;20059;-64
2022/10/17 03:15:53;;;;;;;2.90;1.50;;;13.60;89.90;;;;;;5092750;28;20050;-63
2022/10/17 03:18:20;;;;;;;4.72;1.77;;;13.60;89.80;;;;;;5094072;28;20150;-63
2022/10/17 03:20:50;;;;;;;7.93;2.20;;;13.50;89.80;;;;;;5090635;28;20048;-64
2022/10/17 03:23:17;;;;;;;6.07;2.67;;;13.60;89.70;;;;;;5097501;27;20502;-64
2022/10/17 03:25:45;;;;;;;4.07;1.98;;;13.50;89.60;;;;;;5094988;28;20127;-63
2022/10/17 03:28:14;;;;;;;5.22;2.45;;;13.50;89.60;;;;;;5094297;28;20048;-63
2022/10/17 03:30:41;;;;;;;6.45;2.67;;;13.40;89.60;;;;;;5096412;28;20584;-63
2022/10/17 03:33:08;;;;;;;4.95;2.53;;;13.40;89.70;;;;;;5113079;27;20052;-63
2022/10/17 03:35:38;;;;;;;6.22;2.60;;;13.40;89.70;;;;;;5096845;27;20051;-63
2022/10/17 03:38:07;;;;;;;4.22;2.30;;;13.30;89.70;;;;;;5093895;28;20118;-63
2022/10/17 03:40:34;;;;;;;6.45;2.42;;;13.40;89.70;;;;;;5094952;28;20438;-63
2022/10/17 03:43:01;;;;;;;6.35;2.40;;;13.30;89.60;;;;;;5095753;28;20139;-62
2022/10/17 03:45:29;;;;;;;4.07;2.00;;;13.30;89.60;;;;;;5068436;28;20059;-63
2022/10/17 03:47:58;;;;;;;3.03;1.85;;;13.30;89.50;;;;;;5078247;28;20081;-63
2022/10/17 03:50:25;;;;;;;4.30;1.75;;;13.30;89.50;;;;;;5092022;28;20481;-63
2022/10/17 03:52:52;;;;;;;5.55;1.88;;;13.30;89.60;;;;;;5093710;28;20130;-63
2022/10/17 03:55:20;;;;;;;5.97;1.88;;;13.30;89.60;;;;;;5090259;28;20052;-63
2022/10/17 03:57:48;;;;;;;3.20;1.63;;;13.20;89.60;;;;;;5088961;28;20489;-63
2022/10/17 04:00:17;;;;;;;4.05;1.90;;;13.20;89.50;;;;;;5086256;28;20047;-63
2022/10/17 04:02:52;;;;;;;3.08;1.52;;;13.20;89.50;;;;;;5075747;28;20043;-63
2022/10/17 04:05:19;;;;;;;3.83;1.48;;;13.20;89.40;;;;;;5093217;28;20122;-63
2022/10/17 04:07:47;;;;;;;4.13;1.48;;;13.20;89.50;;;;;;5090868;28;20055;-64
2022/10/17 04:10:20;;;;;;;5.55;1.42;;;13.20;89.40;;;;;;5085171;28;20075;-64
2022/10/17 04:12:48;;;;;;;;;;;13.20;89.40;;;;;;5093901;28;20058;-63
2022/10/17 04:15:15;;;;;;;3.05;1.30;;;13.20;89.30;;;;;;5081791;28;19935;-64
2022/10/17 04:17:42;;;;;;;4.20;1.80;;;13.20;89.30;;;;;;5091964;28;20054;-64
2022/10/17 04:20:10;;;;;;;3.95;1.63;;;13.20;89.30;;;;;;5090900;28;20055;-63
2022/10/17 04:22:37;;;;;;;6.57;1.60;;;13.20;89.30;;;;;;5095912;28;20039;-64
2022/10/17 04:25:04;;;;;;;3.03;1.70;;;13.20;89.40;;;;;;5093881;28;20054;-64
2022/10/17 04:27:37;;;;;;;5.45;1.60;;;13.20;89.40;;;;;;5093322;28;20036;-63
2022/10/17 04:30:09;;;;;;;3.90;1.73;;;13.20;89.40;;;;;;5086274;28;20044;-62
2022/10/17 04:32:39;;;;;;;4.40;1.85;;;13.20;89.40;;;;;;5110118;28;20052;-62
2022/10/17 04:35:13;;;;;;;4.50;1.73;;;13.10;89.40;;;;;;5065156;28;20130;-64
2022/10/17 04:37:45;;;;;;;5.63;1.90;;;13.10;89.50;;;;;;5080417;28;20713;-63
2022/10/17 04:40:17;;;;;;;5.28;1.85;;;13.20;89.30;;;;;;5092508;28;20052;-63
2022/10/17 04:42:44;;;;;;;3.80;1.70;;;13.10;89.30;;;;;;5115745;28;20015;-64
2022/10/17 04:45:15;;;;;;;6.03;1.83;;;13.10;89.30;;;;;;5106573;28;20052;-64
2022/10/17 04:47:42;;;;;;;3.72;1.95;;;13.10;89.50;;;;;;5094673;28;20048;-63
2022/10/17 04:50:09;;;;;;;4.20;1.77;;;13.10;89.40;;;;;;5078743;28;20048;-62
2022/10/17 04:52:36;;;;;;;4.55;1.75;;;13.10;89.50;;;;;;5092676;28;20462;-64
2022/10/17 04:55:04;;;;;;;5.78;2.00;;;13.10;89.50;;;;;;5095096;28;20465;-64
2022/10/17 04:57:34;;;;;;;4.53;1.92;;;13.10;89.50;;;;;;5087139;28;20481;-67
2022/10/17 05:00:08;;;;;;;3.60;1.60;;;13.10;89.50;;;;;;5095981;28;20062;-64
2022/10/17 05:02:53;;;;;;;3.38;1.65;;;13.10;89.50;;;;;;5093829;28;20418;-63
2022/10/17 05:05:20;;;;;;;3.87;1.70;;;13.00;89.40;;;;;;5079703;28;20039;-63
2022/10/17 05:07:50;;;;;;;4.43;1.73;;;13.00;89.50;;;;;;5096149;28;20581;-64
2022/10/17 05:10:22;;;;;;;3.47;1.58;;;12.90;89.50;;;;;;5088772;28;20044;-64
2022/10/17 05:12:51;;;;;;;3.90;1.60;;;13.00;89.50;;;;;;5069150;28;20047;-63
2022/10/17 05:15:21;;;;;;;5.00;1.63;;;13.00;89.50;;;;;;5092221;28;20394;-63
2022/10/17 05:17:48;;;;;;;4.82;1.70;;;12.90;89.50;;;;;;5090613;28;20107;-64
2022/10/17 05:20:16;;;;;;;3.05;1.55;;;12.90;89.40;;;;;;5093908;28;20056;-63
2022/10/17 05:22:44;;;;;;;3.45;2.08;;;12.90;89.40;;;;;;5099441;28;20050;-62
2022/10/17 05:25:11;;;;;;;3.28;1.60;;;12.90;89.50;;;;;;5091148;28;20048;-64
2022/10/17 05:27:38;;;;;;;6.60;1.75;;;12.90;89.50;;;;;;5090538;28;20043;-63
2022/10/17 05:30:06;;;;;;;5.75;1.80;;;12.90;89.50;;;;;;5095499;28;20055;-64
2022/10/17 05:32:35;;;;;;;4.75;1.48;;;12.90;89.50;;;;;;5088035;28;20125;-64
2022/10/17 05:35:04;;;;;;;8.68;2.13;;;12.90;89.60;;;;;;5079687;28;20039;-63
2022/10/17 05:37:33;;;;;;;4.35;2.10;;;12.90;89.60;;;;;;5096675;28;20040;-63
2022/10/17 05:40:01;;;;;;;;;;;12.90;89.50;;;;;;5096187;28;20071;-65
2022/10/17 05:42:30;;;;;;;3.85;2.10;;;12.90;89.50;;;;;;5097175;28;19924;-62
2022/10/17 05:44:58;;;;;;;3.22;1.70;;;12.90;89.50;;;;;;5095574;28;20051;-63
2022/10/17 05:47:27;;;;;;;4.57;1.70;;;12.90;89.50;;;;;;5093369;28;20117;-63
2022/10/17 05:49:54;;;;;;;4.80;1.73;;;12.90;89.50;;;;;;5097378;28;20562;-63
2022/10/17 05:52:27;;;;;;;5.00;2.05;;;12.80;89.50;;;;;;5107889;27;20043;-63
2022/10/17 05:55:08;;;;;;;3.83;2.05;;;12.80;89.60;;;;;;5097853;28;20139;-64
2022/10/17 05:57:35;;;;;;;4.20;2.10;;;12.80;89.60;;;;;;5098040;28;20048;-63
2022/10/17 06:00:06;;;;;;;3.63;1.60;;;12.80;89.60;;;;;;5094753;28;20056;-63
2022/10/17 06:02:44;;;;;;;4.10;1.92;;;12.80;89.50;;;;;;5090298;28;20591;-63
2022/10/17 06:05:14;;;;;;;4.75;2.10;;;12.80;89.60;;;;;;5077931;28;20059;-63
2022/10/17 06:07:41;;;;;;;5.88;2.63;;;12.70;89.60;;;;;;5097302;28;20740;-63
2022/10/17 06:10:13;;;;;;;4.88;2.10;;;12.70;89.70;;;;;;5088444;28;20047;-62
2022/10/17 06:12:41;;;;;;;6.53;2.45;;;12.80;89.80;;;;;;5077883;28;20093;-64
2022/10/17 06:15:09;;;;;;;6.63;2.42;;;12.70;89.80;;;;;;5093825;28;20052;-63
2022/10/17 06:17:37;;;;;;;5.10;2.47;;;12.70;89.80;;;;;;5094458;28;20063;-64
2022/10/17 06:20:06;;;;;;;5.25;2.35;;;12.80;89.70;;;;;;5096449;28;22801;-63
2022/10/17 06:22:33;;;;;;;6.10;2.22;;;12.80;89.50;;;;;;5099626;28;20035;-63
2022/10/17 06:25:02;;;;;;;6.47;2.40;;;12.80;89.50;;;;;;5090759;28;20052;-63
2022/10/17 06:27:30;;;;;;;7.35;2.53;;;12.70;89.60;;;;;;5083268;28;20047;-64
2022/10/17 06:29:57;;;;;;;5.40;1.95;;;12.70;89.70;;;;;;5077094;28;20044;-63
2022/10/17 06:32:24;;;;;;;5.13;2.08;;;12.80;89.70;;;;;;5092978;28;20047;-64
2022/10/17 06:34:51;;;;;;;4.28;1.92;;;12.80;89.90;;;;;;5096012;28;20043;-62
2022/10/17 06:37:18;;;;;;;5.75;2.08;;;12.80;89.80;;;;;;5092930;28;20056;-62
2022/10/17 06:39:47;;;;;;;3.50;1.92;;;12.80;89.80;;;;;;5094954;28;20050;-63
2022/10/17 06:42:17;;;;;;;5.70;3.03;;;12.80;89.90;;;;;;5080316;28;20055;-64
2022/10/17 06:44:50;;;;;;;7.25;2.83;;;12.90;89.60;;;;;;5109475;27;20044;-64
2022/10/17 06:47:36;;;;;;;5.20;2.53;;;13.00;89.50;;;;;;5088694;28;20048;-63
2022/10/17 06:50:14;;;;;;;6.57;2.65;;;12.90;89.70;;;;;;5069638;28;20052;-63
2022/10/17 06:52:46;;;;;;;4.95;2.60;;;12.90;89.90;;;;;;5088402;28;20066;-63
2022/10/17 06:55:52;;;;;;;6.05;2.58;;;13.00;89.90;;;;;;5008819;28;20447;-63
2022/10/17 06:58:26;;;;;;;6.22;2.80;;;13.00;89.90;;;;;;5081158;28;20044;-63
2022/10/17 07:01:12;;;;;;;6.00;3.08;;;13.00;89.80;;;;;;5076501;28;20058;-64
2022/10/17 07:03:40;;;;;;;6.25;2.75;;;13.00;89.80;;;;;;5090422;28;20088;-63
2022/10/17 07:06:09;;;;;;;6.22;3.00;;;13.00;89.70;;;;;;5089167;28;20084;-63
2022/10/17 07:08:36;;;;;;;5.95;2.60;;;13.10;89.80;;;;;;5095710;28;20054;-64
2022/10/17 07:11:09;;;;;;;6.35;2.50;;;13.00;89.90;;;;;;5090669;28;20051;-64
2022/10/17 07:13:36;;;;;;;9.27;3.00;;;13.00;90.00;;;;;;5091314;27;20044;-63
2022/10/17 07:16:03;;;;;;;5.40;2.45;;;13.00;90.00;;;;;;5092087;28;20126;-64
2022/10/17 07:18:33;;;;;;;5.65;2.47;;;13.10;90.00;;;;;;5093351;28;20039;-64
2022/10/17 07:21:00;;;;;;;6.72;2.15;;;13.10;90.00;;;;;;5091962;28;20059;-64
2022/10/17 07:23:35;;;;;;;4.63;2.28;;;13.00;90.00;;;;;;5104318;28;20606;-64
2022/10/17 07:26:06;;;;;;;4.68;2.28;;;13.10;90.00;;;;;;5089843;28;20144;-64
2022/10/17 07:28:33;;;;;;;4.78;2.30;;;13.10;90.00;;;;;;5078362;28;20071;-63
2022/10/17 07:31:08;;;;;;;4.82;2.42;;;13.10;90.10;;;;;;5087070;28;20139;-64
2022/10/17 07:33:38;;;;;;;5.50;2.30;;;13.10;90.10;;;;;;5071522;28;20036;-63
2022/10/17 07:36:05;;;;;;;5.60;2.30;;;13.10;90.10;;;;;;5074805;28;20108;-66
2022/10/17 07:38:33;;;;;;;3.97;1.83;;;13.20;90.10;;;;;;5095863;28;20043;-64
2022/10/17 07:41:01;;;;;;;4.63;1.90;;;13.20;90.00;;;;;;5092464;28;20040;-63
2022/10/17 07:43:29;;;;;;;4.75;1.95;;;13.20;90.00;;;;;;5094568;28;20103;-62
2022/10/17 07:45:56;;;;;;;5.30;1.95;;;13.20;90.00;;;;;;5096382;28;20138;-63
2022/10/17 07:48:24;;;;;;;6.93;2.40;;;13.30;89.80;;;;;;5093039;28;20055;-64
2022/10/17 07:50:53;;;;;;;5.30;2.22;;;13.30;89.50;;;;;;5095472;28;20118;-63
2022/10/17 07:53:19;;;;;;;3.95;1.75;;;13.30;89.50;;;;;;5093818;28;20157;-63
2022/10/17 07:55:48;;;;;;;5.50;2.13;;;13.30;89.90;;;;;;5093696;28;20045;-63
2022/10/17 07:58:15;;;;;;;5.68;2.13;;;13.30;90.10;;;;;;5096510;28;20131;-63
2022/10/17 08:00:47;;;;;;;4.82;2.25;;;13.40;89.70;;;;;;5092213;28;20177;-60
2022/10/17 08:03:13;;;;;;;5.07;2.30;;;13.40;89.80;;;;;;5092078;28;20517;-61
2022/10/17 08:05:40;;;;;;;4.75;2.13;;;13.40;90.10;;;;;;5086879;28;20062;-60
2022/10/17 08:08:09;;;;;;;3.67;1.73;;;13.60;90.20;;;;;;5092036;28;20040;-61
2022/10/17 08:10:36;;;;;;;2.97;1.88;;;13.60;91.40;;;;;;5094705;28;20489;-61
2022/10/17 08:13:03;;;;;;;4.53;2.00;;;13.70;91.40;;;;;;5096702;28;20048;-60
2022/10/17 08:15:31;;;;;;;4.25;1.90;;;13.70;91.50;;;;;;5089030;28;20126;-61
2022/10/17 08:17:59;;;;;;;3.88;2.03;;;13.80;91.60;;;;;;5095205;28;20136;-61
2022/10/17 08:20:25;;;;;;;3.67;1.75;;;13.90;91.90;;;;;;5093563;28;20047;-61
2022/10/17 08:22:53;;;;;;;4.15;1.90;;;14.00;92.30;;;;;;5093987;28;20051;-61
2022/10/17 08:25:22;;;;;;;4.40;2.13;;;14.10;92.40;;;;;;5092428;28;20044;-60
2022/10/17 08:27:49;;;;;;;3.20;1.73;;;14.10;92.70;;;;;;5096654;28;20050;-60
2022/10/17 08:30:16;;;;;;;3.75;1.80;;;14.20;92.80;;;;;;5093519;28;20048;-62
2022/10/17 08:32:43;;;;;;;5.78;1.75;;;14.30;93.10;;;;;;5090701;28;20052;-60
2022/10/17 08:35:10;;;;;;;5.60;2.08;;;14.50;93.20;;;;;;5094251;28;20044;-60
2022/10/17 08:37:37;;;;;;;3.83;1.95;;;14.60;92.90;;;;;;5092912;28;20068;-60
2022/10/17 08:40:05;;;;;;;3.45;1.60;;;14.70;93.40;;;;;;5089396;28;20070;-59
2022/10/17 08:42:50;;;;;;;3.55;1.77;;;14.80;93.60;;;;;;5091419;28;20040;-60
2022/10/17 08:45:25;;;;;;;3.60;1.80;;;14.90;93.10;;;;;;5092986;28;20120;-59
2022/10/17 08:47:56;;;;;;;2.97;1.52;;;15.10;93.60;;;;;;5096138;28;20127;-60
2022/10/17 08:50:30;;;;;;;8.38;2.33;;;15.10;92.80;;;;;;5094796;28;20044;-60
2022/10/17 08:53:02;;;;;;;5.60;2.60;;;15.30;93.10;;;;;;5093647;28;20044;-59
2022/10/17 08:55:38;;;;;;;4.57;2.50;;;15.40;93.10;;;;;;5097268;28;20063;-59
2022/10/17 08:58:14;;;;;;;7.80;2.63;;;15.50;92.80;;;;;;5094255;28;20052;-59
2022/10/17 09:00:45;;;;;;;6.15;2.60;;;15.60;93.10;;;;;;5096771;28;20048;-61
2022/10/17 09:03:28;;;;;;;7.47;2.40;;;15.70;93.10;;;;;;5096597;27;20101;-59
2022/10/17 09:06:08;;;;;;;4.78;2.40;;;15.80;92.80;;;;;;5095025;28;20040;-59
2022/10/17 09:08:45;;;;;;;4.10;2.20;;;15.90;92.50;;;;;;5097208;28;20051;-59
2022/10/17 09:11:25;;;;;;;3.63;2.00;;;16.00;92.30;;;;;;5093899;27;20040;-60
2022/10/17 09:14:09;;;;;;;4.32;2.20;;;16.10;92.50;;;;;;5094627;28;20047;-59
2022/10/17 09:16:57;;;;;;;5.10;1.90;;;16.10;92.50;;;;;;5095285;27;20058;-60
2022/10/17 09:19:28;;;;;;;5.75;2.20;;;16.20;92.40;;;;;;5097286;28;20056;-62
2022/10/17 09:21:59;;;;;;;5.18;2.17;;;16.30;92.40;;;;;;5093236;28;20123;-59
2022/10/17 09:24:43;;;;;;;4.50;2.10;;;16.30;92.30;;;;;;5093762;28;20078;-62
2022/10/17 09:27:23;;;;;;;4.95;2.20;;;16.40;92.20;;;;;;5095181;27;20062;-61
2022/10/17 09:29:55;;;;;;;5.93;2.45;;;16.50;92.20;;;;;;5100691;28;20134;-60
2022/10/17 09:32:25;;;;;;;4.13;2.53;;;16.50;92.20;;;;;;5095350;28;20093;-60
2022/10/17 09:34:52;;;;;;;;;;;16.60;92.10;;;;;;5098538;28;20429;-60
2022/10/17 09:37:22;;;;;;;4.38;2.50;;;16.70;92.00;;;;;;5094934;27;19920;-61
2022/10/17 09:39:49;;;;;;;6.32;2.97;;;16.70;91.80;;;;;;5093020;28;20056;-60
2022/10/17 09:42:21;;;;;;;6.77;3.77;;;16.80;91.70;;;;;;5093093;28;20093;-59
2022/10/17 09:44:55;;;;;;;10.27;5.55;;;16.90;91.60;;;;;;5094366;28;20047;-60
2022/10/17 09:47:28;;;;;;;11.10;4.38;;;17.10;91.50;;;;;;5093278;28;20051;-60
2022/10/17 09:49:55;;;;;;;6.85;3.67;;;17.10;91.60;;;;;;5096670;28;20052;-59
2022/10/17 09:52:27;;;;;;;6.57;3.10;;;17.20;91.50;;;;;;5096449;28;20066;-60
2022/10/17 09:54:59;;;;;;;5.68;3.25;;;17.30;91.30;;;;;;5092974;28;20138;-60
2022/10/17 09:57:26;;;;;;;6.88;2.95;;;17.30;91.10;;;;;;5097544;28;20383;-60
2022/10/17 10:00:00;;;;;;;5.18;2.40;;;17.40;91.10;;;;;;5097264;28;20489;-59
2022/10/17 10:02:28;;;;;;;7.30;2.85;;;17.40;90.70;;;;;;5093336;28;20054;-60
2022/10/17 10:04:59;;;;;;;6.28;2.60;;;17.40;90.70;;;;;;5102228;28;20043;-60
2022/10/17 10:07:28;;;;;;;4.85;2.70;;;17.50;90.90;;;;;;5114535;28;20046;-60
2022/10/17 10:09:56;;;;;;;6.05;3.05;;;17.50;90.90;;;;;;5097445;27;20082;-59
2022/10/17 10:12:25;;;;;;;6.25;2.55;;;17.60;91.00;;;;;;5105376;27;21306;-60
2022/10/17 10:14:52;;;;;;;4.40;2.17;;;17.60;91.00;;;;;;5098335;28;20055;-61
2022/10/17 10:17:33;;;;;;;6.65;2.10;;;17.60;90.90;;;;;;5097193;28;20059;-59
2022/10/17 10:20:00;;;;;;;4.25;2.35;;;17.60;90.90;;;;;;5096264;28;20492;-59
2022/10/17 10:22:29;;;;;;;3.57;1.70;;;17.70;90.90;;;;;;5093803;28;20380;-59
2022/10/17 10:25:08;;;;;;;4.25;2.28;;;17.70;90.90;;;;;;5094391;28;20471;-59
2022/10/17 10:27:35;;;;;;;6.13;2.40;;;17.70;90.80;;;;;;5089330;28;20051;-59
2022/10/17 10:30:04;;;;;;;5.38;2.50;;;17.80;90.80;;;;;;5097708;28;20051;-60
2022/10/17 10:32:35;;;;;;;5.28;2.50;;;17.90;90.30;;;;;;5090342;28;20056;-59
2022/10/17 10:35:06;;;;;;;5.70;2.90;;;17.90;90.30;;;;;;5098920;27;20043;-61
2022/10/17 10:37:38;;;;;;;4.93;3.15;;;17.90;90.30;;;;;;5094850;28;20224;-59
2022/10/17 10:40:07;;;;;;;6.15;3.35;;;18.00;90.30;;;;;;5093715;28;20044;-61
2022/10/17 10:42:37;;;;;;;6.53;2.92;;;18.10;90.20;;;;;;5090849;28;20048;-60
2022/10/17 10:45:17;;;;;;;6.45;2.95;;;18.10;90.10;;;;;;5094516;28;20134;-60
2022/10/17 10:47:53;;;;;;;4.63;2.58;;;18.10;89.90;;;;;;5090193;28;20040;-59
2022/10/17 10:50:27;;;;;;;6.43;2.60;;;18.30;89.80;;;;;;5097686;28;20063;-59
2022/10/17 10:53:07;;;;;;;5.65;2.60;;;18.30;90.00;;;;;;5094781;28;20057;-59
2022/10/17 10:55:35;;;;;;;;;;;18.30;89.70;;;;;;5089443;28;20051;-60
2022/10/17 10:58:09;;;;;;;6.68;3.60;;;18.40;89.90;;;;;;5095201;28;20011;-59
2022/10/17 11:00:38;;;;;;;7.63;3.53;;;18.40;89.40;;;;;;5090083;28;20055;-59
2022/10/17 11:03:14;;;;;;;8.07;4.13;;;18.40;89.50;;;;;;5093187;28;20058;-61
2022/10/17 11:05:46;;;;;;;7.63;3.60;;;18.40;89.70;;;;;;5095465;28;20371;-60
2022/10/17 11:08:21;;;;;;;5.80;3.40;;;18.50;89.20;;;;;;5093162;28;20535;-59
2022/10/17 11:11:00;;;;;;;9.00;5.22;;;18.40;88.20;;;;;;5092260;28;20060;-60
2022/10/17 11:13:34;;;;;;;8.65;4.38;;;18.50;89.30;;;;;;5092875;27;20056;-59
2022/10/17 11:16:11;;;;;;;8.82;5.05;;;18.50;89.30;;;;;;5093822;28;20040;-59
2022/10/17 11:18:44;;;;;;;9.75;4.60;;;18.60;89.60;;;;;;5091405;28;20055;-59
2022/10/17 11:21:16;;;;;;;8.23;4.40;;;18.60;89.30;;;;;;5097345;28;20415;-59
2022/10/17 11:23:47;;;;;;;7.63;4.20;;;18.60;89.10;;;;;;5091704;27;20048;-60
2022/10/17 11:26:25;;;;;;;7.35;4.38;;;18.60;89.00;;;;;;5090173;28;20109;-59
2022/10/17 11:28:53;;;;;;;7.68;4.00;;;18.60;89.00;;;;;;5093811;28;20050;-60
2022/10/17 11:31:22;;;;;;;12.95;7.88;;;18.60;88.80;;;;;;5084449;28;20051;-59
2022/10/17 11:33:55;;;;;;;17.73;9.85;;;18.70;89.00;;;;;;5090096;28;20047;-59
2022/10/17 11:36:28;;;;;;;21.92;14.27;;;18.70;89.20;;;;;;5093338;28;20485;-60
2022/10/17 11:38:58;;;;;;;21.65;13.23;;;18.70;88.90;;;;;;5091841;28;20044;-58
2022/10/17 11:41:32;;;;;;;25.05;14.27;;;18.70;88.30;;;;;;5091542;28;20637;-59
2022/10/17 11:44:05;;;;;;;18.30;10.23;;;18.70;88.40;;;;;;5097663;28;20126;-59
2022/10/17 11:46:35;;;;;;;15.93;9.95;;;18.70;88.40;;;;;;5091101;28;20042;-59
2022/10/17 11:49:11;;;;;;;15.35;9.52;;;18.70;88.30;;;;;;5092541;28;20062;-60
2022/10/17 11:51:45;;;;;;;13.13;6.40;;;18.70;88.40;;;;;;5093332;28;20051;-60
2022/10/17 11:54:16;;;;;;;11.98;7.20;;;18.70;88.10;;;;;;5094428;27;20047;-60
2022/10/17 11:56:54;;;;;;;10.93;6.15;;;18.70;88.80;;;;;;5090296;28;20126;-59
2022/10/17 11:59:48;;;;;;;9.25;5.13;;;18.70;87.60;;;;;;5090316;28;21453;-59
2022/10/17 12:02:23;;;;;;;9.25;4.70;;;18.80;88.20;;;;;;5090047;28;20398;-60
2022/10/17 12:05:00;;;;;;;7.70;4.38;;;18.80;88.00;;;;;;5093528;28;20051;-60
2022/10/17 12:07:36;;;;;;;7.43;4.03;;;18.80;87.80;;;;;;5093383;28;20044;-58
2022/10/17 12:10:16;;;;;;;6.97;3.97;;;18.90;88.00;;;;;;5096423;28;20142;-60
2022/10/17 12:12:44;;;;;;;8.57;3.97;;;18.80;87.90;;;;;;5089814;28;20412;-60
2022/10/17 12:15:29;;;;;;;7.03;3.63;;;18.80;87.30;;;;;;5085880;28;20048;-58
2022/10/17 12:18:00;;;;;;;8.95;4.05;;;18.80;86.50;;;;;;5088406;28;20527;-60
2022/10/17 12:20:36;;;;;;;7.60;4.72;;;18.80;87.20;;;;;;5095003;28;20040;-59
2022/10/17 12:23:24;;;;;;;10.07;4.97;;;18.80;87.10;;;;;;5088838;28;20065;-60
2022/10/17 12:25:53;;;;;;;7.90;4.50;;;18.90;87.20;;;;;;5091967;28;20500;-59
2022/10/17 12:28:27;;;;;;;10.25;4.22;;;18.90;87.90;;;;;;5091531;28;20477;-60
2022/10/17 12:30:59;;;;;;;5.35;3.10;;;19.00;87.80;;;;;;5093935;28;20101;-58
2022/10/17 12:33:34;;;;;;;5.85;3.03;;;19.00;86.70;;;;;;5099964;27;20063;-60
2022/10/17 12:36:46;;;;;;;7.45;3.20;;;19.00;85.50;;;;;;5105682;27;20039;-60
2022/10/17 12:39:52;;;;;;;9.35;4.10;;;19.00;85.80;;;;;;5102260;27;20048;-59
2022/10/17 12:42:32;;;;;;;6.50;3.22;;;19.10;85.60;;;;;;5095250;27;20489;-59
2022/10/17 12:44:59;;;;;;;5.05;2.63;;;19.20;84.80;;;;;;5101028;28;20055;-59
2022/10/17 12:47:39;;;;;;;4.75;2.63;;;19.20;85.10;;;;;;5108714;28;20047;-59
2022/10/17 12:50:21;;;;;;;;;;;19.20;84.80;;;;;;5113559;27;20058;-59
2022/10/17 12:53:06;;;;;;;4.57;2.38;;;19.20;84.10;;;;;;5100782;27;19927;-59
2022/10/17 12:55:33;;;;;;;4.60;1.98;;;19.20;83.50;;;;;;5104425;27;20052;-59
2022/10/17 12:58:03;;;;;;;3.28;1.70;;;19.40;83.20;;;;;;5101954;28;20048;-59
2022/10/17 13:00:36;;;;;;;3.95;1.95;;;19.30;83.30;;;;;;5091581;27;20127;-60
2022/10/17 13:03:10;;;;;;;3.22;1.80;;;19.40;82.80;;;;;;5098498;27;20056;-59
2022/10/17 13:05:45;;;;;;;3.00;1.50;;;19.40;82.50;;;;;;5104417;27;20051;-59
2022/10/17 13:08:19;;;;;;;3.95;1.90;;;19.40;82.30;;;;;;5100081;27;20048;-61
2022/10/17 13:10:48;;;;;;;5.05;1.90;;;19.40;82.80;;;;;;5095617;28;20061;-60
2022/10/17 13:13:20;;;;;;;6.45;1.92;;;19.30;83.10;;;;;;5102364;27;20048;-60